ラパス の空港の天気 - METARとTAF

エル・アルト国際空港 ( SLLP / LPB ) - ボリビア ラパス
飛行場実況気象(Metar)
観測時間08/11 02:00 BOT (08/11 06:00 UTC)
風向・風速北北東 3m/s
視程10km以上
天気現象
少しの雲 雲底高度 300m
気温2℃
湿度41%
気圧1035hPa
METARSLLP 110600Z 02005KT 9999 FEW010 02/M10 Q1035
過去の天気等 Google飛行場航空写真 Wunderground天気予報

過去48時間のMETAR

飛行場予報(TAF)
発表時間: 8/11 00:50 BOT (8/11 04:50 UTC)
予報対象時間: 11日2時 BOT ~ 12日2時 BOT
風向・風速北東 3m/s
視程10km以上
少しの雲 雲底高度 460m
11日10時 BOT ~ 11日14時 BOT に徐々に
風向・風速西南西 5m/s
11日15時 BOT ~ 11日19時 BOT に一時的に
風向・風速南東 6m/s
TAF COR SLLP 110450Z 1106/1206 04005KT 9999 FEW015 TX18/1120Z TNM05/1111Z
BECMG 1114/1118 25010KT
TEMPO 1119/1123 14012KT